DAL1078 KLGA-KDTW
Flight info
| Callsign | DAL1078 |
|---|---|
| Flight time | N/A |
| Altitude | 36000 |
| Route | GAYEL J95 CFB TRAAD JACCI FERRL2 |
| Aircraft | A321/M-SDE3FGHIRWY/LB1 |
Departure
| Time | 2026-04-30 22:57 |
|---|---|
| Airport | LaGuardia Airport (KLGA) |
Arrival
| Time | N/A |
|---|---|
| Airport | Detroit Metropolitan Wayne County Airport (KDTW) |
| Time | Latitude | Longitude | Altitude | Speed | Heading |
|---|---|---|---|---|---|
| 2026-04-30 22:33 | 40.76922 | -73.86053 | 9 ft | 0 kts | 294° |
| 2026-04-30 22:42 | 40.76919 | -73.86044 | 9 ft | 2 kts | 294° |
| 2026-04-30 22:43 | 40.76900 | -73.86015 | 9 ft | 2 kts | 351° |
| 2026-04-30 22:43 | 40.76880 | -73.86023 | 9 ft | 1 kts | 50° |
| 2026-04-30 22:44 | 40.76877 | -73.86028 | 9 ft | 0 kts | 44° |
| 2026-04-30 22:47 | 40.76939 | -73.85957 | 9 ft | 8 kts | 40° |
| 2026-04-30 22:47 | 40.77071 | -73.85963 | 9 ft | 10 kts | 346° |
| 2026-04-30 22:48 | 40.77197 | -73.85946 | 9 ft | 9 kts | 317° |
| 2026-04-30 22:49 | 40.77319 | -73.86186 | 9 ft | 11 kts | 301° |
| 2026-04-30 22:49 | 40.77462 | -73.86483 | 9 ft | 13 kts | 302° |
| 2026-04-30 22:50 | 40.77673 | -73.86929 | 11 ft | 14 kts | 302° |
| 2026-04-30 22:51 | 40.77773 | -73.87139 | 12 ft | 13 kts | 302° |
| 2026-04-30 22:51 | 40.77876 | -73.87350 | 12 ft | 12 kts | 302° |
| 2026-04-30 22:52 | 40.77909 | -73.87406 | 12 ft | 4 kts | 332° |
| 2026-04-30 22:52 | 40.77914 | -73.87409 | 12 ft | 0 kts | 343° |
| 2026-04-30 22:53 | 40.77928 | -73.87412 | 12 ft | 5 kts | 358° |
| 2026-04-30 22:53 | 40.78050 | -73.87328 | 11 ft | 14 kts | 33° |
| 2026-04-30 22:53 | 40.78139 | -73.87252 | 10 ft | 15 kts | 32° |
| 2026-04-30 22:54 | 40.78332 | -73.87092 | 9 ft | 14 kts | 32° |
| 2026-04-30 22:55 | 40.78453 | -73.87013 | 9 ft | 0 kts | 358° |
| 2026-04-30 22:55 | 40.78457 | -73.87013 | 9 ft | 2 kts | 356° |
| 2026-04-30 22:56 | 40.78521 | -73.87073 | 9 ft | 6 kts | 266° |
| 2026-04-30 22:56 | 40.77989 | -73.87528 | 13 ft | 121 kts | 213° |
| 2026-04-30 22:57 | 40.76100 | -73.89081 | 1036 ft | 168 kts | 216° |
| 2026-04-30 22:57 | 40.73994 | -73.90384 | 2314 ft | 181 kts | 186° |
| 2026-04-30 22:58 | 40.71933 | -73.88422 | 2919 ft | 207 kts | 104° |
| 2026-04-30 22:59 | 40.73302 | -73.82787 | 3772 ft | 248 kts | 58° |
| 2026-04-30 22:59 | 40.76976 | -73.77963 | 5456 ft | 260 kts | 358° |